Moran, Texas
Current Conditions -  °F | °C
As of 6:55 PM on Friday 24 Oct 2014 (Local Time) from KBKD Reporting Station
Clear Clear  
Wind Chill: 83°   Ceiling: Unl
Heat Index: 83°   Visibility: 7mi
Dew Point: 54°   Wind: 7mph
Humidity: 37%   Direction: 180°S
Pressure: 30.06"   Gusts: NA
Location:  32.55°N, 99.17°W
Report Text: KBKD 242355Z AUTO 18006KT 7SM CLR 28/12 A3006 RMK AO2 T02820123 10311 20282
Loading
Personal Weather Stations






























Interactive Weather Map
Tropical Storm Tracking
New forecast layout! Learn more

10-Day Weather Forecast

Advertisements
Track Severe Weather on mobile